Time;durP1;ratioP1;P1;durP2;ratioP2;P2;SDS_P1;SDS_P2;PMS_P1;PMS_P2;Temp;Humidity;BMP_temperature;BMP_pressure;BME280_temperature;BME280_humidity;BME280_pressure;Samples;Min_cycle;Max_cycle;Signal;HPM_P1;HPM_P2
2021/08/27 00:00:58;;;;;;;2.40;1.45;;;;;;;15.78;66.39;99583.53;4994795;28;97190;-76
2021/08/27 00:03:23;;;;;;;3.05;1.30;;;;;;;15.70;66.53;99585.84;4978202;28;98239;-76
2021/08/27 00:05:49;;;;;;;3.33;1.95;;;;;;;15.72;66.46;99581.31;4970691;28;101193;-76
2021/08/27 00:08:15;;;;;;;2.22;1.52;;;;;;;15.71;66.67;99593.69;4994858;28;98363;-77
2021/08/27 00:10:40;;;;;;;5.88;1.60;;;;;;;15.66;66.82;99593.13;4995307;28;96900;-76
2021/08/27 00:13:06;;;;;;;6.93;1.63;;;;;;;15.62;66.77;99595.13;4993928;28;97969;-76
2021/08/27 00:15:31;;;;;;;2.15;1.60;;;;;;;15.66;66.75;99603.69;4977870;28;100527;-76
2021/08/27 00:17:57;;;;;;;1.65;1.52;;;;;;;15.63;66.95;99595.97;4978406;28;96671;-76
2021/08/27 00:20:23;;;;;;;3.65;1.70;;;;;;;15.65;66.72;99602.00;4961630;28;96887;-76
2021/08/27 00:22:48;;;;;;;3.17;1.90;;;;;;;15.62;66.73;99600.41;4977874;28;100810;-76
2021/08/27 00:25:14;;;;;;;4.18;1.90;;;;;;;15.55;66.73;99588.53;4977083;28;101495;-76
2021/08/27 00:27:39;;;;;;;2.75;2.10;;;;;;;15.59;66.96;99597.97;4978241;28;96774;-76
2021/08/27 00:30:05;;;;;;;1.77;1.50;;;;;;;15.54;66.86;99597.41;4977770;28;96868;-78
2021/08/27 00:32:31;;;;;;;4.07;2.17;;;;;;;15.56;66.96;99598.19;4994101;28;97418;-78
2021/08/27 00:34:56;;;;;;;2.03;1.58;;;;;;;15.64;66.90;99587.06;4961593;28;101266;-76
2021/08/27 00:37:22;;;;;;;2.83;1.63;;;;;;;15.58;66.65;99590.13;4977061;28;96907;-76
2021/08/27 00:39:48;;;;;;;3.08;1.50;;;;;;;15.66;66.58;99586.97;4978261;28;96860;-76
2021/08/27 00:42:13;;;;;;;2.80;1.55;;;;;;;15.63;66.56;99594.16;4976816;28;101085;-77
2021/08/27 00:44:39;;;;;;;2.03;1.45;;;;;;;15.59;66.45;99578.59;4977591;28;101077;-76
2021/08/27 00:47:04;;;;;;;2.70;1.80;;;;;;;15.54;66.62;99592.13;4975927;28;96920;-76
2021/08/27 00:49:31;;;;;;;2.58;1.85;;;;;;;15.55;66.38;99593.81;4978338;28;96798;-76
2021/08/27 00:51:56;;;;;;;2.20;1.40;;;;;;;15.56;66.28;99587.59;4977481;28;97608;-76
2021/08/27 00:54:22;;;;;;;1.77;1.40;;;;;;;15.50;66.83;99587.97;4977654;28;97353;-76
2021/08/27 00:56:49;;;;;;;5.28;1.50;;;;;;;15.52;66.82;99591.38;4977639;28;96692;-76
2021/08/27 00:59:15;;;;;;;1.42;1.33;;;;;;;15.52;66.72;99590.53;4977349;28;96971;-76
2021/08/27 01:01:40;;;;;;;2.70;1.48;;;;;;;15.52;66.33;99593.19;4993713;28;98019;-76
2021/08/27 01:04:06;;;;;;;2.55;1.55;;;;;;;15.50;66.36;99589.78;4994688;28;97534;-76
2021/08/27 01:06:38;;;;;;;2.20;1.45;;;;;;;15.43;66.52;99585.84;4977760;28;97187;-76
2021/08/27 01:09:08;;;;;;;2.33;1.42;;;;;;;15.52;66.33;99595.81;4976876;28;96872;-76
2021/08/27 01:11:43;;;;;;;4.40;1.38;;;;;;;15.50;66.36;99587.97;4977065;28;97629;-76
2021/08/27 01:14:23;;;;;;;1.67;1.50;;;;;;;15.44;66.11;99588.38;4992902;28;100844;-76
2021/08/27 01:17:10;;;;;;;3.00;1.50;;;;;;;15.47;66.25;99593.47;4990378;28;97374;-77
2021/08/27 01:20:13;;;;;;;5.13;1.35;;;;;;;15.46;66.56;99589.13;4994273;28;97367;-76
2021/08/27 01:23:02;;;;;;;1.60;1.30;;;;;;;15.51;66.29;99594.97;4976851;28;101043;-76
2021/08/27 01:25:30;;;;;;;1.30;1.20;;;;;;;15.47;66.31;99593.47;4994207;28;97956;-76
2021/08/27 01:27:57;;;;;;;3.45;1.90;;;;;;;15.52;66.82;99590.53;4977104;28;97302;-77
2021/08/27 01:30:58;;;;;;;2.42;1.52;;;;;;;15.42;67.26;99600.00;5009803;28;97343;-76
2021/08/27 01:33:24;;;;;;;1.63;1.50;;;;;;;15.33;67.91;99598.81;4969356;28;99556;-76
2021/08/27 01:35:56;;;;;;;4.65;1.50;;;;;;;15.32;68.30;99599.75;4990136;28;101037;-77
2021/08/27 01:38:26;;;;;;;3.58;1.67;;;;;;;15.41;67.87;99601.81;4989466;28;97463;-76
2021/08/27 01:40:52;;;;;;;1.70;1.60;;;;;;;15.39;67.51;99609.84;4976878;28;96830;-77
2021/08/27 01:43:19;;;;;;;1.58;1.35;;;;;;;15.39;67.51;99598.44;4975679;28;101472;-76
2021/08/27 01:45:46;;;;;;;2.88;1.73;;;;;;;15.40;67.32;99598.31;4976424;28;101384;-76
2021/08/27 01:48:12;;;;;;;3.20;1.40;;;;;;;15.37;68.00;99601.16;4960315;28;97184;-76
2021/08/27 01:50:38;;;;;;;1.92;1.52;;;;;;;15.36;67.94;99596.00;4957185;28;97075;-76
2021/08/27 01:53:05;;;;;;;2.63;1.75;;;;;;;15.31;68.24;99592.78;4988864;28;101030;-75
2021/08/27 01:55:31;;;;;;;2.28;1.40;;;;;;;15.19;68.32;99594.44;4976097;28;101263;-76
2021/08/27 01:58:00;;;;;;;1.70;1.50;;;;;;;15.23;68.64;99598.56;5001889;28;97006;-77
2021/08/27 02:00:26;;;;;;;2.95;1.40;;;;;;;15.27;68.37;99599.22;4975764;28;97281;-76
2021/08/27 02:02:53;;;;;;;3.03;1.50;;;;;;;15.28;68.55;99598.28;4993328;28;101241;-77
2021/08/27 02:05:19;;;;;;;1.85;1.60;;;;;;;15.36;68.30;99601.28;4992291;28;97870;-76
2021/08/27 02:07:45;;;;;;;1.80;1.50;;;;;;;15.33;68.47;99597.03;4994056;28;96633;-76
2021/08/27 02:10:11;;;;;;;2.08;1.25;;;;;;;15.36;68.30;99590.69;4975664;28;96993;-76
2021/08/27 02:12:36;;;;;;;2.80;1.60;;;;;;;15.22;68.83;99586.31;4973160;28;97427;-76
2021/08/27 02:15:03;;;;;;;5.18;1.77;;;;;;;15.28;68.21;99591.19;4975068;28;101206;-76
2021/08/27 02:17:29;;;;;;;2.60;1.35;;;;;;;15.21;68.53;99584.59;4975856;28;96971;-76
2021/08/27 02:19:54;;;;;;;2.20;1.25;;;;;;;15.25;68.32;99587.91;4977313;28;96830;-77
2021/08/27 02:22:22;;;;;;;3.00;1.40;;;;;;;15.32;68.11;99587.38;4975445;28;98139;-76
2021/08/27 02:24:57;;;;;;;2.47;1.55;;;;;;;15.20;68.65;99584.69;4976418;28;97306;-76
2021/08/27 02:27:24;;;;;;;1.23;1.13;;;;;;;15.23;68.37;99590.63;4976296;28;96713;-76
2021/08/27 02:29:54;;;;;;;2.38;1.38;;;;;;;15.26;68.80;99592.22;4979950;28;96776;-76
2021/08/27 02:32:20;;;;;;;4.47;1.58;;;;;;;15.24;68.56;99586.19;4974627;28;97344;-76
2021/08/27 02:34:46;;;;;;;1.20;1.08;;;;;;;15.20;68.50;99577.63;4976133;28;100545;-76
2021/08/27 02:37:16;;;;;;;1.92;1.30;;;;;;;15.24;68.35;99575.63;4986453;28;96892;-76
2021/08/27 02:39:41;;;;;;;1.38;1.20;;;;;;;15.19;68.81;99575.09;4976557;28;97179;-76
2021/08/27 02:42:08;;;;;;;2.67;1.40;;;;;;;15.16;68.87;99578.78;4991404;28;97908;-76
2021/08/27 02:44:34;;;;;;;2.05;1.63;;;;;;;15.16;68.68;99576.97;4976491;28;97986;-77
2021/08/27 02:46:59;;;;;;;3.58;1.55;;;;;;;15.20;68.32;99574.13;4959589;28;97212;-76
2021/08/27 02:49:25;;;;;;;3.50;1.60;;;;;;;15.11;68.64;99573.78;4971220;28;97327;-76
2021/08/27 02:52:12;;;;;;;2.03;1.60;;;;;;;15.08;69.20;99573.13;4985687;28;97577;-76
2021/08/27 02:54:48;;;;;;;3.15;1.60;;;;;;;14.99;69.35;99571.09;4986230;28;101295;-76
2021/08/27 02:57:13;;;;;;;2.63;1.52;;;;;;;15.02;69.40;99574.38;4992231;28;97089;-76
2021/08/27 02:59:40;;;;;;;3.47;1.52;;;;;;;14.89;69.96;99576.97;4992103;28;97069;-76
2021/08/27 03:02:07;;;;;;;3.85;1.48;;;;;;;14.92;69.89;99581.16;4990570;28;98517;-76
2021/08/27 03:04:39;;;;;;;3.47;1.63;;;;;;;14.90;69.53;99583.09;4959041;28;100919;-76
2021/08/27 03:07:06;;;;;;;2.25;1.67;;;;;;;14.91;69.68;99585.63;4978987;28;96760;-76
2021/08/27 03:09:43;;;;;;;5.03;1.58;;;;;;;14.96;69.33;99587.97;4979866;28;97791;-77
2021/08/27 03:12:11;;;;;;;3.88;1.60;;;;;;;14.89;69.72;99584.00;4947235;28;101118;-76
2021/08/27 03:14:37;;;;;;;3.40;2.13;;;;;;;14.80;70.44;99588.09;4974880;28;97799;-77
2021/08/27 03:17:05;;;;;;;5.32;1.50;;;;;;;14.79;70.03;99590.84;4979194;28;96755;-76
2021/08/27 03:20:08;;;;;;;3.25;1.80;;;;;;;14.86;70.16;99598.25;4978956;28;97459;-76
2021/08/27 03:22:55;;;;;;;3.75;1.70;;;;;;;14.83;70.03;99594.97;4988229;28;97895;-76
2021/08/27 03:25:22;;;;;;;5.22;1.98;;;;;;;14.83;70.14;99594.97;4961969;28;101130;-76
2021/08/27 03:27:53;;;;;;;3.95;2.30;;;;;;;14.87;69.77;99599.13;4979290;28;96677;-76
2021/08/27 03:30:21;;;;;;;2.65;1.77;;;;;;;14.85;70.09;99601.03;4977967;28;96995;-77
2021/08/27 03:32:51;;;;;;;4.18;1.80;;;;;;;14.86;69.79;99595.63;4962333;28;100976;-76
2021/08/27 03:35:18;;;;;;;3.40;1.75;;;;;;;14.85;69.87;99601.88;4977791;28;101255;-76
2021/08/27 03:37:44;;;;;;;2.75;1.88;;;;;;;14.86;69.79;99603.53;4995841;28;96698;-76
2021/08/27 03:40:11;;;;;;;3.38;1.77;;;;;;;14.85;69.86;99606.31;4995119;28;96724;-76
2021/08/27 03:42:38;;;;;;;3.28;1.85;;;;;;;14.84;69.75;99605.47;4995106;28;97504;-76
2021/08/27 03:45:05;;;;;;;6.38;2.38;;;;;;;14.84;69.94;99605.47;4977911;28;101589;-76
2021/08/27 03:47:31;;;;;;;7.95;2.15;;;;;;;14.89;69.74;99613.06;4995556;28;96656;-76
2021/08/27 03:49:56;;;;;;;4.15;2.10;;;;;;;14.87;70.03;99599.13;4979193;28;97309;-76
2021/08/27 03:52:23;;;;;;;4.70;3.13;;;;;;;14.89;69.96;99605.16;4977469;28;101799;-76
2021/08/27 03:54:49;;;;;;;3.10;2.20;;;;;;;14.87;69.72;99605.25;4978777;28;97996;-76
2021/08/27 03:57:16;;;;;;;3.95;2.28;;;;;;;14.90;69.84;99602.44;4994521;28;97957;-76
2021/08/27 03:59:42;;;;;;;5.20;2.28;;;;;;;14.89;69.50;99607.78;4978595;28;98509;-76
2021/08/27 04:02:11;;;;;;;3.38;2.22;;;;;;;14.85;69.88;99591.28;4977291;28;101229;-75
2021/08/27 04:04:36;;;;;;;4.45;2.22;;;;;;;14.93;69.76;99599.59;4994722;28;98024;-76
2021/08/27 04:07:03;;;;;;;4.18;2.40;;;;;;;14.92;69.61;99608.47;4978797;28;97138;-76
2021/08/27 04:09:34;;;;;;;2.40;2.20;;;;;;;14.98;69.30;99604.59;4975297;28;97638;-76
2021/08/27 04:12:01;;;;;;;;;;;;;;;14.96;69.67;99610.91;4995095;28;98212;-76
2021/08/27 04:14:26;;;;;;;2.85;2.08;;;;;;;14.89;69.96;99606.03;4961268;28;100903;-76
2021/08/27 04:16:51;;;;;;;2.55;2.15;;;;;;;14.86;69.88;99605.34;4975249;28;97292;-76
2021/08/27 04:19:17;;;;;;;7.65;2.40;;;;;;;14.97;69.84;99609.97;4986058;28;96890;-76
2021/08/27 04:21:43;;;;;;;3.65;2.50;;;;;;;14.95;69.80;99607.41;4977076;28;101252;-76
2021/08/27 04:24:09;;;;;;;4.30;2.40;;;;;;;14.92;69.22;99597.91;5010477;28;101015;-75
2021/08/27 04:26:35;;;;;;;4.45;2.25;;;;;;;15.03;69.37;99618.34;4995027;28;96809;-76
2021/08/27 04:29:00;;;;;;;3.88;2.50;;;;;;;14.96;69.03;99617.06;4978092;28;97254;-76
2021/08/27 04:31:26;;;;;;;2.90;2.28;;;;;;;14.99;69.35;99622.13;4977322;28;97461;-76
2021/08/27 04:33:52;;;;;;;2.97;2.40;;;;;;;15.10;69.13;99626.75;4975563;28;101451;-76
2021/08/27 04:36:17;;;;;;;3.85;2.67;;;;;;;15.04;69.13;99619.19;4977748;28;97287;-76
2021/08/27 04:38:43;;;;;;;5.32;3.28;;;;;;;15.14;69.06;99631.72;4994961;28;97059;-76
2021/08/27 04:41:08;;;;;;;5.30;2.63;;;;;;;15.18;68.97;99629.72;4976752;28;99574;-76
2021/08/27 04:43:34;;;;;;;4.13;2.47;;;;;;;15.25;69.01;99631.06;4977441;28;98143;-76
2021/08/27 04:45:59;;;;;;;6.43;2.42;;;;;;;15.27;69.18;99633.56;4990648;28;97171;-76
2021/08/27 04:48:25;;;;;;;3.60;2.50;;;;;;;15.33;68.54;99630.53;4977708;28;96866;-76
2021/08/27 04:50:51;;;;;;;5.80;2.33;;;;;;;15.31;68.59;99621.88;4994211;28;97419;-76
2021/08/27 04:53:17;;;;;;;9.43;2.95;;;;;;;15.40;68.45;99630.06;4976904;28;97489;-76
2021/08/27 04:55:43;;;;;;;3.28;2.22;;;;;;;15.39;68.09;99627.53;4958075;28;97287;-76
2021/08/27 04:58:09;;;;;;;3.08;2.40;;;;;;;15.43;67.89;99631.66;4968852;28;98408;-78
2021/08/27 05:00:34;;;;;;;2.88;2.53;;;;;;;15.35;67.83;99639.22;4975765;28;101743;-76
2021/08/27 05:03:00;;;;;;;8.82;3.03;;;;;;;15.43;67.91;99636.94;4977243;28;101559;-76
2021/08/27 05:05:25;;;;;;;4.70;2.20;;;;;;;15.40;68.02;99639.78;4977681;28;97155;-77
2021/08/27 05:07:51;;;;;;;6.45;2.75;;;;;;;15.48;67.65;99639.31;4977445;28;97209;-77
2021/08/27 05:10:17;;;;;;;5.20;2.53;;;;;;;15.47;67.66;99640.22;4959405;28;101127;-76
2021/08/27 05:12:42;;;;;;;6.70;2.78;;;;;;;15.40;67.69;99635.34;4977180;28;101032;-79
2021/08/27 05:15:08;;;;;;;6.00;2.45;;;;;;;15.46;67.13;99636.75;4977337;28;96776;-76
2021/08/27 05:17:34;;;;;;;5.30;3.00;;;;;;;15.33;67.49;99630.53;4977031;28;96936;-77
2021/08/27 05:20:00;;;;;;;6.10;3.10;;;;;;;15.35;67.98;99633.94;4972952;28;101483;-77
2021/08/27 05:22:26;;;;;;;7.82;3.05;;;;;;;15.45;67.56;99635.06;4962972;28;101322;-77
2021/08/27 05:24:52;;;;;;;11.43;3.22;;;;;;;15.39;67.55;99628.38;4993923;28;98030;-77
2021/08/27 05:27:17;;;;;;;4.28;3.10;;;;;;;15.45;67.49;99639.50;4993500;28;96769;-77
2021/08/27 05:29:43;;;;;;;4.53;2.92;;;;;;;15.51;66.92;99642.59;4976136;28;101376;-77
2021/08/27 05:32:09;;;;;;;12.20;3.75;;;;;;;15.49;67.05;99641.00;4972844;28;97319;-77
2021/08/27 05:34:34;;;;;;;9.52;3.60;;;;;;;15.55;67.12;99641.44;4989380;28;96707;-77
2021/08/27 05:37:00;;;;;;;10.50;3.80;;;;;;;15.52;66.91;99632.84;5008020;28;96875;-76
2021/08/27 05:39:27;;;;;;;4.88;3.30;;;;;;;15.79;65.92;99643.44;4975816;28;101008;-77
2021/08/27 05:41:57;;;;;;;14.48;3.80;;;;;;;15.92;65.39;99649.63;4992671;28;100836;-76
2021/08/27 05:44:23;;;;;;;6.30;3.80;;;;;;;15.76;65.93;99648.94;4993274;28;96804;-77
2021/08/27 05:46:49;;;;;;;6.93;2.80;;;;;;;15.69;66.38;99643.22;4976804;28;97335;-76
2021/08/27 05:49:14;;;;;;;7.43;3.95;;;;;;;15.62;66.83;99647.19;4979264;28;97565;-77
2021/08/27 05:51:40;;;;;;;10.30;3.67;;;;;;;15.74;66.58;99650.84;4974280;28;98433;-77
2021/08/27 05:54:05;;;;;;;11.50;3.60;;;;;;;15.83;66.39;99650.25;5008734;28;96895;-77
2021/08/27 05:56:31;;;;;;;4.85;3.15;;;;;;;15.72;66.77;99658.03;4993038;28;97332;-77
2021/08/27 05:58:56;;;;;;;5.35;3.10;;;;;;;15.83;66.42;99655.53;4996373;28;97305;-76
2021/08/27 06:01:22;;;;;;;5.40;3.65;;;;;;;15.83;66.11;99659.03;4990569;28;101441;-77
2021/08/27 06:03:47;;;;;;;6.72;3.67;;;;;;;15.89;65.71;99663.06;4976050;28;97180;-77
2021/08/27 06:06:13;;;;;;;7.25;3.28;;;;;;;15.99;65.51;99655.34;4973850;28;97500;-76
2021/08/27 06:08:38;;;;;;;6.40;3.10;;;;;;;16.02;65.66;99657.78;4954611;28;101275;-76
2021/08/27 06:11:04;;;;;;;6.72;3.08;;;;;;;15.79;66.38;99657.50;5017434;27;101514;-77
2021/08/27 06:13:29;;;;;;;3.70;2.70;;;;;;;15.71;66.24;99643.13;4982965;28;96898;-77
2021/08/27 06:15:56;;;;;;;7.63;3.00;;;;;;;15.83;65.83;99652.88;4987804;28;97180;-77
2021/08/27 06:18:22;;;;;;;9.23;3.45;;;;;;;15.94;65.50;99658.31;5018279;27;98342;-77
2021/08/27 06:20:50;;;;;;;16.85;3.45;;;;;;;15.91;66.04;99657.66;4973875;28;97441;-77
2021/08/27 06:23:16;;;;;;;15.32;3.13;;;;;;;15.98;65.80;99661.59;4972833;28;96749;-77
2021/08/27 06:25:41;;;;;;;8.55;2.65;;;;;;;15.96;65.62;99663.50;4974964;28;97449;-77
2021/08/27 06:28:07;;;;;;;10.45;2.53;;;;;;;15.92;65.97;99668.16;4991730;28;97360;-77
2021/08/27 06:30:32;;;;;;;6.15;2.47;;;;;;;15.84;65.88;99663.34;4973739;28;98084;-77
2021/08/27 06:32:58;;;;;;;5.28;2.20;;;;;;;15.96;65.32;99655.56;4971398;28;96806;-76
2021/08/27 06:35:23;;;;;;;8.13;2.15;;;;;;;15.97;65.45;99668.69;5023091;27;97676;-77
2021/08/27 06:40:33;;;;;;;14.32;2.75;;;;;;;16.00;65.37;99665.00;4986916;28;97924;-76
2021/08/27 06:42:59;;;;;;;12.98;2.53;;;;;;;16.07;64.87;99669.75;4965416;28;96913;-76
2021/08/27 06:45:25;;;;;;;5.30;2.40;;;;;;;16.03;64.75;99664.81;4975905;28;97852;-78
2021/08/27 06:47:50;;;;;;;9.00;2.22;;;;;;;16.14;64.46;99672.00;4989433;28;98088;-76
2021/08/27 06:50:16;;;;;;;4.13;2.28;;;;;;;16.04;64.72;99667.31;4972630;28;101865;-76
2021/08/27 06:52:41;;;;;;;5.35;2.13;;;;;;;16.17;64.30;99675.28;4956275;28;97104;-76
2021/08/27 06:55:07;;;;;;;5.05;2.20;;;;;;;16.15;64.45;99674.56;4972558;28;97060;-76
2021/08/27 06:57:33;;;;;;;5.22;2.58;;;;;;;16.04;65.17;99680.56;4979997;28;98652;-76
2021/08/27 06:59:58;;;;;;;7.93;2.38;;;;;;;16.24;63.89;99676.56;4973322;28;101105;-76
2021/08/27 07:02:24;;;;;;;2.95;2.58;;;;;;;16.25;63.92;99661.53;4978406;28;97215;-76
2021/08/27 07:04:49;;;;;;;4.22;2.67;;;;;;;16.45;63.26;99684.00;4985044;28;98290;-76
2021/08/27 07:07:15;;;;;;;4.93;2.13;;;;;;;16.39;63.67;99673.84;4990870;28;98245;-76
2021/08/27 07:09:40;;;;;;;5.60;2.00;;;;;;;16.43;63.88;99683.25;4969758;28;101033;-76
2021/08/27 07:12:09;;;;;;;4.47;1.90;;;;;;;16.37;64.17;99673.94;4984910;28;97124;-76
2021/08/27 07:14:34;;;;;;;6.10;1.83;;;;;;;16.32;63.94;99681.38;4966477;28;98093;-76
2021/08/27 07:17:00;;;;;;;6.13;2.15;;;;;;;16.43;64.01;99689.41;5004294;28;101034;-78
2021/08/27 07:19:25;;;;;;;7.07;1.83;;;;;;;16.45;63.78;99684.00;4974752;28;97977;-78
2021/08/27 07:21:51;;;;;;;6.28;2.25;;;;;;;16.46;63.22;99696.28;4982912;28;97304;-76
2021/08/27 07:24:17;;;;;;;5.47;1.80;;;;;;;16.43;62.53;99670.88;4975319;28;97278;-76
2021/08/27 07:26:42;;;;;;;5.20;2.00;;;;;;;16.57;61.75;99690.28;4985173;28;98231;-77
2021/08/27 07:29:08;;;;;;;3.15;1.90;;;;;;;16.53;61.63;99684.34;4988323;28;97377;-78
2021/08/27 07:31:33;;;;;;;3.63;1.80;;;;;;;16.59;61.87;99697.16;4957899;28;97133;-79
2021/08/27 07:33:58;;;;;;;3.60;1.80;;;;;;;16.51;62.30;99692.38;4975430;28;97150;-78
2021/08/27 07:36:24;;;;;;;5.25;1.90;;;;;;;16.63;62.01;99690.69;4974074;28;99894;-78
2021/08/27 07:38:50;;;;;;;3.47;1.95;;;;;;;16.46;62.81;99697.16;4988659;28;101121;-78
2021/08/27 07:41:15;;;;;;;3.25;2.10;;;;;;;16.52;63.04;99698.53;4984701;28;96538;-81
2021/08/27 07:43:41;;;;;;;5.00;1.90;;;;;;;16.51;62.50;99702.13;4957044;28;97299;-81
2021/08/27 07:46:06;;;;;;;2.70;1.88;;;;;;;16.62;62.48;99709.34;4973949;28;101727;-81
2021/08/27 07:48:32;;;;;;;10.73;2.25;;;;;;;16.63;62.71;99708.41;4957729;28;101352;-80
2021/08/27 07:50:57;;;;;;;3.95;1.80;;;;;;;16.84;61.76;99699.00;4986567;28;97226;-82
2021/08/27 07:53:23;;;;;;;4.32;1.75;;;;;;;16.66;62.34;99693.13;4974911;28;96863;-83
2021/08/27 07:55:49;;;;;;;4.63;1.67;;;;;;;16.72;62.03;99691.84;4976893;28;101235;-83
2021/08/27 07:58:14;;;;;;;4.32;2.00;;;;;;;16.72;62.38;99694.50;4993567;28;97463;-81
2021/08/27 08:00:40;;;;;;;5.50;1.75;;;;;;;16.88;61.62;99697.81;4959823;28;97074;-83
2021/08/27 08:03:05;;;;;;;5.68;1.60;;;;;;;17.04;61.02;99686.13;4989290;28;96773;-82
2021/08/27 08:05:31;;;;;;;2.13;1.70;;;;;;;17.25;nan;99697.00;4976524;28;100700;-83
2021/08/27 08:07:56;;;;;;;5.85;1.52;;;;;;;17.31;59.90;99694.78;4994218;28;97419;-81
2021/08/27 08:10:22;;;;;;;3.28;1.55;;;;;;;17.28;60.08;99695.00;5023283;27;98210;-83
2021/08/27 08:12:47;;;;;;;2.20;1.70;;;;;;;17.39;60.20;99697.75;5007864;28;97213;-83
2021/08/27 08:15:14;;;;;;;7.38;2.63;;;;;;;17.47;59.88;99699.81;4984019;28;97604;-81
2021/08/27 08:17:40;;;;;;;2.45;1.65;;;;;;;17.53;59.90;99696.72;4975853;28;98542;-83
2021/08/27 08:20:07;;;;;;;2.85;1.50;;;;;;;17.62;59.51;99705.81;4960361;28;97562;-83
2021/08/27 08:22:34;;;;;;;4.10;1.98;;;;;;;17.58;59.58;99699.91;4983640;28;97272;-84
2021/08/27 08:24:59;;;;;;;2.10;1.58;;;;;;;17.65;59.04;99698.47;4963409;28;101171;-84
2021/08/27 08:27:26;;;;;;;3.22;2.15;;;;;;;17.45;59.18;99698.22;4972667;28;97354;-82
2021/08/27 08:29:51;;;;;;;6.18;1.65;;;;;;;17.51;59.37;99703.97;4977252;28;97179;-82
2021/08/27 08:32:17;;;;;;;7.70;1.92;;;;;;;17.64;59.24;99701.25;5008790;28;96890;-81
2021/08/27 08:34:42;;;;;;;6.93;1.92;;;;;;;17.80;58.57;99698.34;4968996;28;101148;-83
2021/08/27 08:37:08;;;;;;;6.32;2.28;;;;;;;18.03;58.21;99701.94;5006018;28;102671;-83
2021/08/27 08:39:37;;;;;;;6.30;1.92;;;;;;;18.39;58.23;99697.50;4985291;28;96632;-83
2021/08/27 08:42:03;;;;;;;3.08;1.70;;;;;;;18.67;57.00;99704.16;4973860;28;96870;-85
2021/08/27 08:44:28;;;;;;;4.95;2.10;;;;;;;18.86;55.54;99696.50;4971835;28;97388;-82
2021/08/27 08:46:55;;;;;;;2.80;1.65;;;;;;;18.93;55.29;99692.38;4988633;28;101285;-82
2021/08/27 08:49:24;;;;;;;4.82;2.03;;;;;;;19.00;55.08;99698.91;4973818;28;97298;-85
2021/08/27 08:51:51;;;;;;;3.58;1.42;;;;;;;18.89;55.27;99690.94;4975899;28;97305;-85
2021/08/27 08:54:18;;;;;;;3.53;2.00;;;;;;;18.86;54.34;99701.81;4973289;28;97595;-83
2021/08/27 08:56:44;;;;;;;2.15;1.73;;;;;;;18.63;53.74;99703.56;4980943;28;97741;-89
2021/08/27 08:59:14;;;;;;;2.83;1.70;;;;;;;18.64;54.32;99697.28;4988487;28;96979;-83
2021/08/27 09:01:39;;;;;;;3.72;1.60;;;;;;;18.76;54.02;99696.38;4974712;28;97210;-82
2021/08/27 09:04:05;;;;;;;2.97;1.75;;;;;;;18.84;53.72;99703.75;4968757;28;97417;-80
2021/08/27 09:06:31;;;;;;;5.35;2.45;;;;;;;18.74;53.99;99692.16;4988800;28;98061;-78
2021/08/27 09:09:00;;;;;;;2.33;1.40;;;;;;;18.94;52.94;99706.53;4972344;28;96801;-80
2021/08/27 09:11:26;;;;;;;2.05;1.50;;;;;;;18.73;52.89;99709.00;4967414;28;97373;-80
2021/08/27 09:13:55;;;;;;;4.10;1.63;;;;;;;18.72;53.72;99712.66;4979043;28;98570;-78
2021/08/27 09:16:24;;;;;;;1.50;1.40;;;;;;;18.94;52.63;99704.72;4951462;28;100918;-81
2021/08/27 09:18:50;;;;;;;5.60;1.55;;;;;;;19.41;51.74;99710.75;4981482;28;97191;-82
2021/08/27 09:21:28;;;;;;;2.85;1.42;;;;;;;19.44;51.16;99709.66;4968605;28;97485;-78
2021/08/27 09:24:18;;;;;;;2.53;1.42;;;;;;;20.04;49.94;99710.09;4972387;28;97944;-78
2021/08/27 09:26:56;;;;;;;3.90;1.30;;;;;;;20.61;49.74;99706.19;4958331;28;97619;-78
2021/08/27 09:29:39;;;;;;;2.70;1.48;;;;;;;21.08;48.31;99703.91;4987627;28;97906;-78
2021/08/27 09:32:20;;;;;;;3.70;1.23;;;;;;;21.10;46.88;99703.78;4971034;28;96941;-78
2021/08/27 09:34:46;;;;;;;1.42;1.33;;;;;;;21.42;45.34;99695.63;4986981;28;97884;-81
2021/08/27 09:37:12;;;;;;;1.45;1.20;;;;;;;21.81;44.39;99696.53;4972172;28;101191;-80
2021/08/27 09:39:38;;;;;;;1.48;1.30;;;;;;;21.65;45.05;99699.75;4970591;28;97124;-81
2021/08/27 09:42:04;;;;;;;2.05;1.40;;;;;;;21.76;45.59;99695.25;4988661;28;97222;-87
2021/08/27 09:44:29;;;;;;;1.10;1.10;;;;;;;21.76;45.94;99689.91;4980192;28;101695;-90
2021/08/27 09:46:55;;;;;;;3.50;1.30;;;;;;;21.74;45.99;99690.06;4996872;28;98129;-92
2021/08/27 09:49:32;;;;;;;1.75;1.30;;;;;;;21.83;45.78;99688.38;4964849;28;96521;-92
2021/08/27 09:52:09;;;;;;;2.17;1.40;;;;;;;21.70;46.48;99696.69;4965343;28;96691;-91
2021/08/27 09:54:38;;;;;;;1.73;1.60;;;;;;;22.04;45.88;99699.78;4965057;28;101622;-92
2021/08/27 09:57:08;;;;;;;1.67;1.58;;;;;;;22.74;45.54;99702.25;4981367;28;100059;-91
2021/08/27 09:59:39;;;;;;;2.03;1.65;;;;;;;23.11;45.76;99701.44;4964905;28;96604;-92
2021/08/27 10:02:06;;;;;;;2.80;1.17;;;;;;;22.64;46.92;99709.47;4981996;28;96876;-91
2021/08/27 10:04:32;;;;;;;2.85;1.40;;;;;;;22.13;48.26;99706.94;4980294;28;101667;-91
2021/08/27 10:06:58;;;;;;;1.48;1.38;;;;;;;21.76;49.33;99716.63;4980201;28;102897;-91
2021/08/27 10:09:42;;;;;;;2.50;1.70;;;;;;;21.44;52.27;99715.03;4997696;28;96653;-92
2021/08/27 10:12:08;;;;;;;1.30;1.20;;;;;;;21.31;52.94;99719.72;4965418;28;96784;-93
2021/08/27 10:14:34;;;;;;;3.13;1.50;;;;;;;21.20;53.82;99726.00;4965396;28;101867;-92
2021/08/27 10:17:02;;;;;;;3.75;2.28;;;;;;;21.07;54.58;99712.91;4963464;28;100906;-92
2021/08/27 10:19:27;;;;;;;3.88;1.60;;;;;;;20.88;55.58;99716.31;4980777;28;96568;-90
2021/08/27 10:21:53;;;;;;;9.25;3.03;;;;;;;20.76;55.88;99712.88;4982937;28;96917;-92
2021/08/27 10:24:19;;;;;;;3.60;1.55;;;;;;;20.39;56.58;99709.84;4980813;28;101208;-93
2021/08/27 10:26:45;;;;;;;2.67;1.55;;;;;;;20.02;58.12;99707.56;4963855;28;101765;-93
2021/08/27 10:29:11;;;;;;;2.85;1.60;;;;;;;19.94;58.18;99710.03;4980517;28;96628;-96
2021/08/27 10:31:45;;;;;;;4.72;2.20;;;;;;;19.77;59.01;99706.09;4981343;28;96804;-93
2021/08/27 10:34:12;;;;;;;5.78;2.08;;;;;;;19.51;59.99;99702.00;4980726;28;102266;-94
2021/08/27 10:36:40;;;;;;;3.22;1.80;;;;;;;19.57;59.84;99702.34;4964283;28;100144;-89
2021/08/27 10:39:06;;;;;;;2.45;1.80;;;;;;;19.68;60.07;99707.69;4982191;28;96756;-92
2021/08/27 10:41:36;;;;;;;2.22;1.38;;;;;;;19.64;59.56;99703.56;4981826;28;96843;-90
2021/08/27 10:44:11;;;;;;;3.28;1.40;;;;;;;19.60;58.54;99701.25;4979692;28;100369;-89
2021/08/27 10:46:46;;;;;;;2.28;1.60;;;;;;;19.75;58.88;99702.72;4963211;28;101374;-88
2021/08/27 10:49:20;;;;;;;1.50;1.40;;;;;;;19.97;58.68;99698.28;4980356;28;96640;-89
2021/08/27 10:51:47;;;;;;;2.95;1.70;;;;;;;20.38;57.54;99699.28;4998156;28;96537;-91
2021/08/27 10:54:15;;;;;;;2.05;1.33;;;;;;;20.70;56.50;99696.56;4979547;28;100379;-91
2021/08/27 10:56:49;;;;;;;2.67;1.70;;;;;;;20.92;55.34;99693.75;4963051;28;97541;-88
2021/08/27 10:59:15;;;;;;;3.72;1.60;;;;;;;21.03;54.60;99682.09;4979589;28;96628;-82
2021/08/27 11:01:42;;;;;;;1.77;1.55;;;;;;;21.18;52.26;99683.44;4979232;28;96974;-79
2021/08/27 11:04:31;;;;;;;3.42;2.28;;;;;;;21.08;52.25;99684.38;4994273;28;100555;-78
2021/08/27 11:07:13;;;;;;;3.40;1.27;;;;;;;20.85;51.78;99676.56;4978001;28;99487;-75
2021/08/27 11:09:39;;;;;;;5.93;1.60;;;;;;;20.77;52.54;99681.75;4978141;28;96633;-76
2021/08/27 11:12:16;;;;;;;2.63;1.40;;;;;;;20.69;53.32;99679.72;4995497;28;96811;-77
2021/08/27 11:14:47;;;;;;;3.40;1.00;;;;;;;20.70;52.20;99675.25;4977753;28;101254;-76
2021/08/27 11:17:13;;;;;;;3.50;1.30;;;;;;;20.62;51.35;99672.38;4977891;28;101233;-77
2021/08/27 11:19:58;;;;;;;1.67;1.33;;;;;;;20.69;51.25;99674.41;4994387;28;96491;-77
2021/08/27 11:22:30;;;;;;;1.20;1.10;;;;;;;20.72;50.19;99673.28;4995015;28;96560;-77
2021/08/27 11:25:01;;;;;;;1.30;1.20;;;;;;;20.80;50.50;99678.81;4961583;28;101436;-76
2021/08/27 11:27:27;;;;;;;3.55;1.88;;;;;;;20.75;50.12;99678.34;4977360;28;98301;-77
2021/08/27 11:29:53;;;;;;;2.42;1.40;;;;;;;20.73;49.11;99685.63;4997782;28;96597;-76
2021/08/27 11:32:45;;;;;;;2.95;1.20;;;;;;;20.75;49.80;99681.88;4998381;28;96798;-76
2021/08/27 11:35:10;;;;;;;4.90;1.50;;;;;;;20.88;50.55;99681.63;4977158;28;97737;-76
2021/08/27 11:37:40;;;;;;;1.90;1.40;;;;;;;21.10;50.81;99680.63;4980460;28;99264;-76